Avera, Georgia
Current Conditions -  °F | °C
As of 7:55 PM on Saturday 20 Dec 2014 (Local Time) from KOKZ Reporting Station
Haze Haze  
Wind Chill: 11°   Ceiling: 800
Heat Index: 11°   Visibility: 5mi
Dew Point: 10°   Wind: 5mph
Humidity: 94%   Direction: 30°NNE
Pressure: 30.21"   Gusts: NA
Location:  33.19°N, 82.53°W
Report Text: KOKZ 210055Z AUTO 03004KT 5SM BR OVC008 11/10 A3021 RMK AO2 T01100101
Loading
Personal Weather Stations






























Interactive Weather Map New forecast layout! Learn more

10-Day Weather Forecast

Advertisements
Track Severe Weather on mobile